Time;durP1;ratioP1;P1;durP2;ratioP2;P2;SDS_P1;SDS_P2;PMS_P1;PMS_P2;Temp;Humidity;BMP_temperature;BMP_pressure;BME280_temperature;BME280_humidity;BME280_pressure;Samples;Min_cycle;Max_cycle;Signal;HPM_P1;HPM_P2
2022/01/28 00:00:05;;;;;;;1.58;1.00;;;;;;;5.72;22.72;93096.06;4974613;28;20301;-88
2022/01/28 00:02:49;;;;;;;1.85;1.02;;;;;;;5.77;23.95;93096.16;5008727;28;20077;-87
2022/01/28 00:05:23;;;;;;;4.22;1.95;;;;;;;6.34;23.36;93132.19;4992340;28;20046;-88
2022/01/28 00:08:24;;;;;;;2.97;1.60;;;;;;;5.76;24.35;93089.38;5007604;28;20363;-88
2022/01/28 00:10:58;;;;;;;3.35;1.50;;;;;;;5.67;25.39;93101.19;4977298;28;20503;-88
2022/01/28 00:13:39;;;;;;;1.80;0.90;;;;;;;5.82;24.29;93076.19;4992650;28;20035;-88
2022/01/28 00:19:40;;;;;;;3.03;1.40;;;;;;;5.88;26.12;93092.66;4965943;28;20133;-87
2022/01/28 00:36:46;;;;;;;2.15;1.05;;;;;;;5.62;29.49;93164.25;5008801;28;20133;-88
2022/01/28 00:39:14;;;;;;;0.73;0.68;;;;;;;5.52;28.55;93119.97;4980764;28;20034;-88
2022/01/28 00:42:03;;;;;;;0.45;0.45;;;;;;;5.65;29.20;93091.03;4990429;28;20109;-87
2022/01/28 00:45:05;;;;;;;;;;;;;;;;;;;;;
2022/01/28 00:47:43;;;;;;;0.88;0.70;;;;;;;6.22;28.47;93139.34;4992111;28;20093;-88
2022/01/28 00:50:34;;;;;;;0.40;0.40;;;;;;;6.09;28.99;93090.31;5007991;28;20088;-88
2022/01/28 00:53:30;;;;;;;;;;;;;;;;;;;;;
2022/01/28 00:56:11;;;;;;;0.68;0.52;;;;;;;6.72;27.85;93095.88;4977801;28;20044;-88
2022/01/28 00:58:49;;;;;;;0.60;0.55;;;;;;;6.98;30.52;93141.09;4975510;28;20046;-88
2022/01/28 01:01:29;;;;;;;1.35;0.70;;;;;;;7.09;28.31;93137.56;5007576;28;20054;-88
2022/01/28 01:04:13;;;;;;;;;;;;;;;;;;;;;
2022/01/28 01:06:49;;;;;;;1.08;0.47;;;;;;;6.94;29.58;93108.81;5007685;28;20531;-87
2022/01/28 01:09:19;;;;;;;0.60;0.50;;;;;;;7.00;29.58;93124.22;4975047;28;20069;-88
2022/01/28 01:12:00;;;;;;;1.00;0.70;;;;;;;6.61;30.01;93093.16;4957222;28;20131;-88
2022/01/28 01:14:43;;;;;;;0.40;0.40;;;;;;;6.63;29.13;93105.94;4961918;28;20058;-88
2022/01/28 01:20:38;;;;;;;0.73;0.47;;;;;;;7.36;29.71;93171.34;4987917;28;20137;-88
2022/01/28 01:23:09;;;;;;;0.40;0.40;;;;;;;7.24;29.37;93161.13;4973445;28;20059;-88
2022/01/28 01:26:10;;;;;;;2.17;0.63;;;;;;;7.06;29.51;93148.47;4967659;28;20038;-87
2022/01/28 01:28:52;;;;;;;0.70;0.60;;;;;;;6.85;29.54;93127.47;4991594;28;20132;-88
2022/01/28 01:31:20;;;;;;;0.43;0.43;;;;;;;6.77;29.81;93125.31;4993102;28;20038;-88
2022/01/28 01:34:20;;;;;;;;;;;;;;;;;;;;;
2022/01/28 01:36:48;;;;;;;0.30;0.30;;;;;;;6.86;30.90;93169.91;4991669;28;20039;-88
2022/01/28 01:39:23;;;;;;;0.60;0.60;;;;;;;6.60;30.33;93127.25;4991887;28;20418;-88
2022/01/28 01:53:33;;;;;;;0.60;0.50;;;;;;;6.97;30.75;93176.00;4991075;28;20043;-88
2022/01/28 01:56:04;;;;;;;0.60;0.60;;;;;;;6.84;31.35;93175.34;4958944;28;20403;-88
2022/01/28 01:58:31;;;;;;;1.45;0.70;;;;;;;6.62;31.73;93156.38;4975066;28;20035;-88
2022/01/28 02:01:03;;;;;;;0.75;0.52;;;;;;;6.60;30.92;93150.66;4970249;28;20030;-88
2022/01/28 02:03:31;;;;;;;1.13;0.60;;;;;;;6.79;30.04;93158.91;4945545;28;20039;-88
2022/01/28 02:05:58;;;;;;;0.43;0.43;;;;;;;6.62;30.32;93122.56;4976383;28;20062;-88
2022/01/28 02:08:26;;;;;;;0.77;0.60;;;;;;;6.72;30.38;93130.47;4959512;28;20037;-88
2022/01/28 02:10:59;;;;;;;0.70;0.68;;;;;;;6.83;30.31;93134.75;4976014;28;20046;-88
2022/01/28 02:13:29;;;;;;;;;;;;;;;6.86;30.57;93144.66;4977390;28;20048;-88
2022/01/28 02:15:56;;;;;;;0.52;0.50;;;;;;;6.71;30.65;93120.31;5010342;28;19921;-88
2022/01/28 02:18:29;;;;;;;0.63;0.50;;;;;;;6.33;31.53;93060.41;4994510;28;20042;-88
2022/01/28 02:21:09;;;;;;;0.57;0.47;;;;;;;6.43;31.93;93064.91;4978098;28;20037;-87
2022/01/28 02:23:55;;;;;;;0.40;0.40;;;;;;;6.54;31.80;93092.59;4961607;28;20488;-90
2022/01/28 02:26:25;;;;;;;0.57;0.45;;;;;;;6.39;31.64;93030.78;4959583;28;20488;-88
2022/01/28 02:29:05;;;;;;;;;;;;;;;;;;;;;
2022/01/28 02:31:47;;;;;;;0.40;0.40;;;;;;;6.75;30.89;93051.13;4976247;28;20730;-88
2022/01/28 02:34:20;;;;;;;0.40;0.40;;;;;;;7.05;30.98;93089.66;4975531;28;20413;-88
2022/01/28 02:36:54;;;;;;;0.32;0.32;;;;;;;6.58;30.84;93012.25;4978427;28;20030;-88
2022/01/28 02:39:41;;;;;;;;;;;;;;;;;;;;;
2022/01/28 02:42:19;;;;;;;0.32;0.32;;;;;;;7.10;31.11;93076.66;5010403;28;20027;-89
2022/01/28 02:44:53;;;;;;;0.43;0.40;;;;;;;6.60;31.29;93012.78;4978054;28;20476;-89
2022/01/28 02:47:35;;;;;;;0.90;0.57;;;;;;;6.76;31.28;93045.69;4975997;28;20042;-87
2022/01/28 02:50:07;;;;;;;2.92;0.40;;;;;;;6.53;31.71;93020.81;4979082;28;20038;-87
2022/01/28 02:53:01;;;;;;;0.50;0.50;;;;;;;6.35;31.61;93003.75;4975441;28;20039;-88
2022/01/28 02:55:38;;;;;;;0.40;0.40;;;;;;;6.29;31.44;92998.75;4979026;28;20042;-87
2022/01/28 02:58:27;;;;;;;1.20;0.40;;;;;;;6.11;32.23;92984.28;4979496;28;20416;-88
2022/01/28 03:00:57;;;;;;;0.35;0.32;;;;;;;6.00;32.21;92986.00;4963267;28;20042;-87
2022/01/28 03:03:43;;;;;;;0.40;0.40;;;;;;;5.96;32.81;92993.47;4993136;28;20126;-88
2022/01/28 03:06:33;;;;;;;0.65;0.57;;;;;;;5.76;32.79;92983.63;4981397;28;20046;-87
2022/01/28 03:09:19;;;;;;;0.40;0.40;;;;;;;5.73;32.99;92978.16;4980081;28;20089;-90
2022/01/28 03:12:12;;;;;;;0.40;0.40;;;;;;;5.64;32.91;92975.97;4980164;28;20042;-89
2022/01/28 03:18:10;;;;;;;0.40;0.40;;;;;;;5.68;32.79;92999.66;5009483;28;20049;-90
2022/01/28 03:21:01;;;;;;;0.63;0.60;;;;;;;5.69;33.10;92995.25;4977100;28;20047;-89
2022/01/28 03:23:36;;;;;;;0.40;0.40;;;;;;;5.71;33.11;93013.97;4993445;28;20034;-88
2022/01/28 03:26:16;;;;;;;0.40;0.40;;;;;;;5.43;33.16;92992.38;4976778;28;20045;-89
2022/01/28 03:28:57;;;;;;;0.38;0.38;;;;;;;5.32;33.33;92975.09;4993128;28;20038;-89
2022/01/28 03:31:38;;;;;;;0.30;0.30;;;;;;;5.19;33.49;92971.81;5008996;28;20088;-89
2022/01/28 03:34:16;;;;;;;0.40;0.40;;;;;;;5.32;33.78;93006.25;4992720;28;20388;-89
2022/01/28 03:36:57;;;;;;;;;;;;;;;;;;;;;
2022/01/28 03:39:53;;;;;;;0.40;0.40;;;;;;;4.96;33.95;92985.78;5005808;28;20046;-88
2022/01/28 03:42:23;;;;;;;0.38;0.38;;;;;;;4.82;34.32;92975.97;4957649;28;20039;-88
2022/01/28 03:45:05;;;;;;;0.32;0.32;;;;;;;4.88;33.98;92995.78;4976997;28;20038;-89
2022/01/28 03:47:33;;;;;;;0.45;0.43;;;;;;;4.88;34.18;92982.81;4992921;28;20145;-88
2022/01/28 03:50:39;;;;;;;0.30;0.30;;;;;;;4.77;33.61;92980.09;4977424;28;20472;-89
2022/01/28 03:53:11;;;;;;;0.52;0.50;;;;;;;4.79;33.68;92980.63;4986892;28;20038;-88
2022/01/28 03:55:57;;;;;;;;;;;;;;;;;;;;;
2022/01/28 03:58:48;;;;;;;0.50;0.40;;;;;;;5.12;33.21;93012.75;4975638;28;20782;-88
2022/01/28 04:01:34;;;;;;;0.65;0.50;;;;;;;5.01;33.52;93018.81;4957661;28;20596;-88
2022/01/28 04:04:52;;;;;;;0.60;0.60;;;;;;;4.98;33.82;93027.09;4976485;28;20041;-89
2022/01/28 04:13:05;;;;;;;0.30;0.30;;;;;;;4.96;32.91;93049.88;4993488;28;20038;-88
2022/01/28 04:16:14;;;;;;;0.30;0.30;;;;;;;4.67;32.73;93018.06;4981028;28;20492;-89
2022/01/28 04:18:53;;;;;;;0.40;0.40;;;;;;;4.85;30.20;93028.19;4992061;28;20038;-88
2022/01/28 04:21:21;;;;;;;1.45;0.47;;;;;;;5.21;29.22;93052.03;4975537;28;20035;-89
2022/01/28 04:23:57;;;;;;;0.43;0.40;;;;;;;5.08;28.67;93003.06;4993051;28;20085;-88
2022/01/28 04:26:28;;;;;;;0.63;0.50;;;;;;;5.72;25.95;93033.72;5007462;28;20384;-89
2022/01/28 04:31:54;;;;;;;0.40;0.40;;;;;;;6.62;25.18;92993.28;5007548;28;20039;-89
2022/01/28 04:34:34;;;;;;;0.40;0.40;;;;;;;6.83;25.50;93012.44;4976275;28;20113;-88
2022/01/28 04:37:38;;;;;;;0.43;0.43;;;;;;;6.66;25.68;92998.75;5007127;28;20125;-89
2022/01/28 04:40:21;;;;;;;0.50;0.40;;;;;;;7.03;24.16;93050.06;4976105;28;20042;-89
2022/01/28 04:43:13;;;;;;;0.50;0.50;;;;;;;6.95;25.50;93027.88;4994529;28;20407;-88
2022/01/28 04:45:56;;;;;;;0.55;0.55;;;;;;;7.01;24.55;93003.44;4962098;28;20121;-88
2022/01/28 04:48:50;;;;;;;0.70;0.52;;;;;;;7.55;19.64;93031.09;4993463;28;20040;-90
2022/01/28 05:00:49;;;;;;;0.75;0.60;;;;;;;7.58;22.91;93007.13;4991330;28;20077;-88
2022/01/28 05:06:55;;;;;;;0.90;0.60;;;;;;;7.97;22.84;93032.00;4975344;28;20052;-89
2022/01/28 05:15:32;;;;;;;0.88;0.50;;;;;;;7.47;23.12;93019.31;5008006;28;20054;-88
2022/01/28 05:26:37;;;;;;;1.45;0.75;;;;;;;7.79;22.22;93067.94;4976505;28;20077;-89
2022/01/28 05:29:14;;;;;;;0.85;0.57;;;;;;;7.70;23.65;93057.22;4990218;28;20037;-88
2022/01/28 05:31:46;;;;;;;1.08;0.80;;;;;;;7.28;24.65;93039.78;4981349;28;20096;-89
2022/01/28 05:34:47;;;;;;;;;;;;;;;;;;;;;
2022/01/28 05:37:22;;;;;;;1.23;0.77;;;;;;;7.26;23.91;93023.63;4978527;28;20041;-88
2022/01/28 05:40:08;;;;;;;1.02;0.68;;;;;;;7.53;24.54;93100.13;5007419;28;20109;-88
2022/01/28 05:42:54;;;;;;;0.90;0.60;;;;;;;7.24;24.15;93083.00;4993762;28;20042;-88
2022/01/28 05:45:27;;;;;;;0.60;0.60;;;;;;;6.96;24.08;93058.06;5009750;28;20069;-87
2022/01/28 05:48:03;;;;;;;;;;;;;;;;;;;;;
2022/01/28 05:50:53;;;;;;;;;;;;;;;;;;;;;
2022/01/28 05:54:12;;;;;;;;;;;;;;;;;;;;;
2022/01/28 05:57:11;;;;;;;0.43;0.43;;;;;;;6.76;23.27;93045.69;4996694;28;20121;-89
2022/01/28 06:00:18;;;;;;;0.45;0.45;;;;;;;6.99;22.78;93075.78;4998249;28;20049;-89
2022/01/28 06:02:48;;;;;;;0.40;0.40;;;;;;;7.33;21.15;93085.91;4962672;28;20064;-88
2022/01/28 06:05:35;;;;;;;0.30;0.30;;;;;;;7.80;20.05;93092.19;4987650;28;20030;-89
2022/01/28 06:08:16;;;;;;;0.30;0.30;;;;;;;7.99;19.57;93090.69;4997525;28;20387;-88
2022/01/28 06:11:08;;;;;;;0.38;0.38;;;;;;;8.25;20.11;93112.44;4996782;28;20042;-88
2022/01/28 06:14:02;;;;;;;0.82;0.63;;;;;;;8.10;19.51;93109.75;4994612;28;20046;-87
2022/01/28 06:16:27;;;;;;;1.58;0.43;;;;;;;8.12;18.74;93056.31;4996278;28;20069;-88
2022/01/28 06:18:55;;;;;;;5.47;0.68;;;;;;;8.24;18.28;93052.69;4997098;28;20106;-87
2022/01/28 06:21:22;;;;;;;0.40;0.40;;;;;;;8.33;19.46;93069.41;4995403;28;20070;-88
2022/01/28 06:23:58;;;;;;;2.72;0.50;;;;;;;8.35;19.63;93072.53;4997812;28;20030;-87
2022/01/28 06:26:27;;;;;;;0.40;0.40;;;;;;;8.25;18.62;93073.31;4995849;28;20050;-88
2022/01/28 06:28:53;;;;;;;0.45;0.43;;;;;;;8.44;18.93;93104.16;4995819;28;20032;-86
2022/01/28 06:31:21;;;;;;;0.80;0.60;;;;;;;8.32;20.58;93084.28;4994072;28;20113;-89
2022/01/28 06:34:02;;;;;;;;;;;;;;;;;;;;;
2022/01/28 06:36:41;;;;;;;0.40;0.40;;;;;;;7.93;18.92;93095.09;4990460;28;20034;-89
2022/01/28 06:39:16;;;;;;;1.27;0.60;;;;;;;8.41;18.63;93086.44;4993798;28;20034;-87
2022/01/28 06:41:45;;;;;;;1.13;0.75;;;;;;;8.27;19.20;93092.09;4995079;28;20521;-87
2022/01/28 06:44:29;;;;;;;1.40;0.80;;;;;;;8.14;21.58;93126.47;4995617;28;20113;-87
2022/01/28 06:46:59;;;;;;;0.40;0.40;;;;;;;8.08;20.44;93117.06;4995158;28;20089;-87
2022/01/28 06:49:32;;;;;;;1.48;0.85;;;;;;;8.17;22.00;93149.44;4993931;28;20423;-87
2022/01/28 06:52:00;;;;;;;0.98;0.60;;;;;;;7.95;22.39;93147.00;4994430;28;20042;-88
2022/01/28 06:54:28;;;;;;;0.90;0.68;;;;;;;7.86;22.42;93161.56;4995210;28;20022;-87
2022/01/28 06:56:54;;;;;;;1.77;0.90;;;;;;;7.60;23.37;93150.94;5006891;28;20046;-87
2022/01/28 06:59:24;;;;;;;1.38;0.77;;;;;;;7.53;22.93;93160.81;4995396;28;21524;-88
2022/01/28 07:01:53;;;;;;;1.05;0.68;;;;;;;7.58;23.69;93181.69;4983809;28;20062;-88
2022/01/28 07:04:26;;;;;;;1.05;0.73;;;;;;;7.36;24.28;93166.16;4975375;28;20480;-89
2022/01/28 07:06:52;;;;;;;1.52;0.80;;;;;;;7.21;24.51;93177.25;4975636;28;20368;-88
2022/01/28 07:09:18;;;;;;;1.42;1.08;;;;;;;7.88;24.90;93219.41;4996892;28;20041;-87
2022/01/28 07:11:44;;;;;;;1.65;1.00;;;;;;;9.74;22.88;93230.97;4979292;28;20134;-87
2022/01/28 07:14:11;;;;;;;2.08;1.00;;;;;;;11.64;21.13;93228.44;5011630;28;20037;-88
2022/01/28 07:16:42;;;;;;;2.17;1.00;;;;;;;13.19;18.99;93214.50;4993911;28;20377;-87
2022/01/28 07:19:16;;;;;;;2.38;1.17;;;;;;;14.28;17.95;93210.72;4995609;28;20417;-88
2022/01/28 07:21:54;;;;;;;;;;;;;;;;;;;;;
2022/01/28 07:24:28;;;;;;;1.85;0.95;;;;;;;17.00;15.94;93260.06;4994493;28;20396;-88
2022/01/28 07:27:01;;;;;;;7.35;1.08;;;;;;;17.81;15.14;93266.75;5007075;28;20030;-89
2022/01/28 07:29:32;;;;;;;1.05;0.90;;;;;;;18.48;14.90;93263.56;5007374;28;20112;-87
2022/01/28 07:31:58;;;;;;;1.42;0.90;;;;;;;19.79;13.83;93254.22;4987812;28;20050;-88
2022/01/28 07:34:36;;;;;;;0.82;0.77;;;;;;;19.81;13.47;93259.97;5005096;28;20034;-89
2022/01/28 07:37:11;;;;;;;2.33;1.20;;;;;;;20.47;12.99;93275.97;4992031;28;20038;-88
2022/01/28 07:39:49;;;;;;;;;;;;;;;;;;;;;
2022/01/28 07:42:26;;;;;;;2.67;0.88;;;;;;;21.76;11.94;93276.63;4995723;28;20122;-88
2022/01/28 07:44:56;;;;;;;1.25;0.90;;;;;;;22.41;11.30;93289.88;4993776;28;20501;-88
2022/01/28 07:47:27;;;;;;;1.75;1.08;;;;;;;22.43;11.09;93264.44;4990943;28;20034;-88
2022/01/28 07:50:16;;;;;;;1.63;0.85;;;;;;;23.60;10.62;93314.97;4992913;28;20038;-89
2022/01/28 07:52:47;;;;;;;3.33;0.95;;;;;;;24.25;10.30;93317.91;4993995;28;20045;-89
2022/01/28 07:55:35;;;;;;;4.72;1.00;;;;;;;24.64;9.75;93319.81;4997052;28;20114;-88
2022/01/28 07:58:03;;;;;;;1.23;0.80;;;;;;;25.05;9.23;93361.09;4991472;28;20097;-89
2022/01/28 08:00:29;;;;;;;1.17;0.75;;;;;;;24.55;9.03;93308.56;4984689;28;20042;-91
2022/01/28 08:03:06;;;;;;;0.70;0.70;;;;;;;25.42;8.83;93300.88;4995545;28;20055;-89
2022/01/28 08:05:37;;;;;;;2.08;0.93;;;;;;;26.51;8.21;93293.94;5008464;28;20034;-89
2022/01/28 08:08:08;;;;;;;2.50;1.00;;;;;;;26.10;8.35;93326.78;4989637;28;20031;-89
2022/01/28 08:10:56;;;;;;;1.38;0.90;;;;;;;26.83;8.28;93342.63;4974246;28;20294;-89
2022/01/28 08:13:22;;;;;;;1.38;0.90;;;;;;;26.38;7.79;93330.97;4967400;28;20040;-90
2022/01/28 08:15:58;;;;;;;0.73;0.70;;;;;;;26.79;7.24;93331.06;4994555;28;20034;-89
2022/01/28 08:18:33;;;;;;;2.80;0.70;;;;;;;27.62;6.85;93354.13;4994707;28;20042;-89
2022/01/28 08:21:04;;;;;;;2.67;0.70;;;;;;;27.47;6.50;93360.53;5010084;28;20414;-89
2022/01/28 08:23:37;;;;;;;2.60;0.60;;;;;;;27.78;6.42;93362.69;5008563;28;20057;-90
2022/01/28 08:26:21;;;;;;;1.17;0.90;;;;;;;28.68;5.87;93355.16;4994641;28;20476;-89
2022/01/28 08:29:11;;;;;;;0.83;0.70;;;;;;;27.57;6.07;93354.47;4993048;28;20044;-88
2022/01/28 08:31:55;;;;;;;0.70;0.70;;;;;;;27.15;6.56;93363.66;4974924;28;20285;-88
2022/01/28 08:34:33;;;;;;;1.17;0.80;;;;;;;25.97;6.58;93424.69;4974402;28;20053;-91
2022/01/28 08:37:07;;;;;;;0.75;0.60;;;;;;;27.03;5.79;93398.88;4974278;28;20051;-88
2022/01/28 08:39:39;;;;;;;1.20;0.77;;;;;;;28.12;6.39;93392.16;4988182;28;20530;-89
2022/01/28 08:42:12;;;;;;;0.68;0.68;;;;;;;28.67;5.55;93394.03;4993158;28;20122;-88
2022/01/28 08:44:51;;;;;;;0.98;0.80;;;;;;;28.36;5.52;93425.00;4987850;28;20038;-88
2022/01/28 08:47:21;;;;;;;0.52;0.45;;;;;;;25.92;6.86;93420.41;4993597;28;20038;-88
2022/01/28 08:49:52;;;;;;;0.60;0.60;;;;;;;26.79;6.27;93417.81;4957483;28;20047;-88
2022/01/28 08:52:25;;;;;;;0.38;0.38;;;;;;;26.05;5.68;93431.72;4986892;28;20066;-88
2022/01/28 08:54:59;;;;;;;0.98;0.50;;;;;;;24.27;7.54;93438.72;4992932;28;20100;-87
2022/01/28 08:57:32;;;;;;;3.45;0.32;;;;;;;23.11;7.88;93478.22;4992940;28;20112;-89
2022/01/28 09:00:06;;;;;;;2.15;0.30;;;;;;;21.53;8.78;93410.28;4991464;28;20073;-88
2022/01/28 09:03:01;;;;;;;0.73;0.38;;;;;;;20.41;8.61;93428.84;4975257;28;20047;-89
2022/01/28 09:05:42;;;;;;;0.47;0.40;;;;;;;19.28;9.58;93416.16;4974002;28;20046;-87
2022/01/28 09:08:22;;;;;;;0.20;0.20;;;;;;;19.52;9.06;93436.81;4978518;28;20066;-87
2022/01/28 09:14:01;;;;;;;0.32;0.30;;;;;;;19.32;9.43;93436.44;5008910;28;20133;-88
2022/01/28 09:16:43;;;;;;;;;;;;;;;;;;;;;
2022/01/28 09:19:16;;;;;;;0.55;0.30;;;;;;;19.01;9.71;93473.03;5009043;28;20164;-88
2022/01/28 09:21:46;;;;;;;0.28;0.28;;;;;;;18.75;10.10;93452.56;4973322;28;20125;-88
2022/01/28 09:24:23;;;;;;;0.38;0.30;;;;;;;18.82;9.61;93449.47;4975159;28;20051;-91
2022/01/28 09:27:07;;;;;;;;;;;;;;;;;;;;;
2022/01/28 09:30:04;;;;;;;;;;;;;;;;;;;;;
2022/01/28 09:32:58;;;;;;;;;;;;;;;;;;;;;
2022/01/28 09:35:41;;;;;;;1.75;0.50;;;;;;;17.03;11.13;93468.44;4992288;28;20042;-87
2022/01/28 09:38:20;;;;;;;1.98;0.80;;;;;;;17.16;9.89;93506.50;4961988;28;20030;-88
2022/01/28 09:40:59;;;;;;;0.28;0.28;;;;;;;17.04;10.85;93521.03;4981390;28;20137;-89
2022/01/28 09:43:40;;;;;;;0.50;0.40;;;;;;;16.06;10.93;93489.84;4989975;28;20148;-88
2022/01/28 09:46:18;;;;;;;0.63;0.40;;;;;;;16.51;12.06;93513.75;4990676;28;20046;-87
2022/01/28 09:48:49;;;;;;;0.35;0.35;;;;;;;17.03;11.38;93526.63;5008360;28;20550;-88
2022/01/28 09:51:36;;;;;;;2.85;0.40;;;;;;;17.40;11.38;93538.66;4991992;28;20064;-88
2022/01/28 09:54:14;;;;;;;0.55;0.30;;;;;;;15.76;11.19;93530.81;4992143;28;20503;-87
2022/01/28 09:56:47;;;;;;;4.07;0.45;;;;;;;16.03;11.28;93507.06;4993226;28;20045;-87
2022/01/28 09:59:25;;;;;;;3.30;0.50;;;;;;;16.36;10.94;93528.03;4976815;28;20093;-88
2022/01/28 10:01:59;;;;;;;0.95;0.43;;;;;;;16.32;10.91;93521.78;4959678;28;20512;-90
2022/01/28 10:04:39;;;;;;;2.67;0.40;;;;;;;16.82;10.93;93568.63;4993582;28;20038;-87
2022/01/28 10:07:14;;;;;;;3.30;0.45;;;;;;;16.30;10.89;93529.25;4961768;28;20046;-87
2022/01/28 10:10:05;;;;;;;0.30;0.30;;;;;;;16.91;10.77;93507.84;4976635;28;20161;-88
2022/01/28 10:12:51;;;;;;;0.63;0.52;;;;;;;16.50;10.56;93516.66;4973468;28;20094;-87
2022/01/28 10:15:38;;;;;;;0.85;0.40;;;;;;;16.07;11.50;93514.38;4976231;28;20031;-87
2022/01/28 10:18:31;;;;;;;0.50;0.32;;;;;;;14.90;12.43;93549.63;4956972;28;20506;-88
2022/01/28 10:21:45;;;;;;;2.20;0.73;;;;;;;16.48;11.16;93592.81;4981955;28;20052;-89
2022/01/28 10:24:21;;;;;;;0.50;0.50;;;;;;;16.54;11.05;93584.50;4995196;28;20034;-88
2022/01/28 10:26:59;;;;;;;0.38;0.38;;;;;;;16.01;11.09;93575.22;4994946;28;20062;-87
2022/01/28 10:29:32;;;;;;;1.05;0.50;;;;;;;15.82;11.23;93587.72;4994271;28;20723;-87
2022/01/28 10:32:03;;;;;;;0.40;0.40;;;;;;;15.82;11.70;93585.09;4992704;28;20034;-87
2022/01/28 10:34:37;;;;;;;0.50;0.50;;;;;;;15.90;11.69;93587.06;4987683;28;20074;-87
2022/01/28 10:37:18;;;;;;;0.50;0.50;;;;;;;16.60;11.44;93593.88;4979437;28;20077;-88
2022/01/28 10:39:52;;;;;;;1.00;0.30;;;;;;;16.96;10.91;93579.16;4983639;28;20086;-88
2022/01/28 10:42:25;;;;;;;0.52;0.50;;;;;;;16.73;10.90;93592.31;4996633;28;20391;-87
2022/01/28 10:45:03;;;;;;;0.40;0.40;;;;;;;16.84;10.70;93601.63;5011328;28;20046;-88
2022/01/28 10:47:33;;;;;;;0.57;0.50;;;;;;;16.41;10.26;93554.38;4979699;28;20043;-88
2022/01/28 10:49:59;;;;;;;0.60;0.35;;;;;;;15.32;11.06;93569.03;5010707;28;20026;-87
2022/01/28 10:52:33;;;;;;;7.22;0.73;;;;;;;15.27;11.72;93577.03;4991805;28;20039;-87
2022/01/28 10:55:00;;;;;;;0.68;0.50;;;;;;;15.68;11.95;93571.84;5008528;28;20038;-87
2022/01/28 10:57:29;;;;;;;0.40;0.40;;;;;;;15.37;10.35;93566.28;4976492;28;20089;-87
2022/01/28 10:59:55;;;;;;;0.30;0.30;;;;;;;16.26;11.09;93586.38;4978949;28;20042;-88
2022/01/28 11:02:25;;;;;;;0.43;0.30;;;;;;;16.62;10.71;93573.22;5001743;28;20047;-87
2022/01/28 11:04:52;;;;;;;0.50;0.50;;;;;;;16.29;11.31;93553.31;4977518;28;20491;-87
2022/01/28 11:07:18;;;;;;;0.38;0.38;;;;;;;16.17;10.13;93577.59;5004791;28;20058;-88
2022/01/28 11:09:45;;;;;;;1.27;0.77;;;;;;;15.37;10.57;93521.44;4975633;28;20054;-87
2022/01/28 11:12:23;;;;;;;0.63;0.50;;;;;;;14.91;10.27;93514.28;4978465;28;20089;-88
2022/01/28 11:14:53;;;;;;;0.95;0.40;;;;;;;15.94;10.51;93574.03;5012102;28;20038;-88
2022/01/28 11:17:24;;;;;;;3.30;0.40;;;;;;;15.09;10.23;93502.16;4992375;28;20042;-88
2022/01/28 11:20:02;;;;;;;1.73;0.47;;;;;;;15.23;10.73;93518.78;4961178;28;20055;-88
2022/01/28 11:22:53;;;;;;;0.90;0.65;;;;;;;14.28;10.73;93526.72;4977514;28;20073;-88
2022/01/28 11:26:04;;;;;;;;;;;;;;;;;;;;;
2022/01/28 11:28:55;;;;;;;0.57;0.45;;;;;;;14.42;11.32;93478.63;4990535;28;20521;-88
2022/01/28 11:31:51;;;;;;;0.88;0.60;;;;;;;15.41;11.09;93562.00;4994235;28;20033;-89
2022/01/28 11:34:39;;;;;;;;;;;;;;;;;;;;;
2022/01/28 11:37:20;;;;;;;1.13;0.63;;;;;;;15.97;10.42;93545.19;4994173;28;20042;-87
2022/01/28 11:40:14;;;;;;;0.75;0.50;;;;;;;15.24;9.80;93487.91;4988154;28;20046;-89
2022/01/28 11:42:52;;;;;;;;;;;;;;;;;;;;;
2022/01/28 11:45:50;;;;;;;0.40;0.40;;;;;;;14.90;10.58;93499.53;5008872;28;20061;-88
2022/01/28 11:49:17;;;;;;;0.50;0.50;;;;;;;15.87;10.14;93563.88;4984329;28;20042;-93
2022/01/28 11:51:48;;;;;;;0.50;0.50;;;;;;;14.46;10.35;93479.63;4990543;28;20495;-87
2022/01/28 11:54:47;;;;;;;0.32;0.32;;;;;;;15.01;10.35;93479.84;4984409;28;20030;-88
2022/01/28 11:57:26;;;;;;;0.50;0.50;;;;;;;14.54;9.82;93471.84;4995066;28;20062;-87
2022/01/28 12:00:23;;;;;;;0.40;0.40;;;;;;;14.80;9.88;93479.41;4977803;28;20041;-88
2022/01/28 12:03:19;;;;;;;0.80;0.40;;;;;;;13.81;10.42;93454.66;4995415;28;20113;-88
2022/01/28 12:05:57;;;;;;;1.95;0.60;;;;;;;13.66;10.56;93496.94;4970894;28;20058;-88
2022/01/28 12:12:13;;;;;;;1.08;0.50;;;;;;;13.35;10.13;93457.00;4994059;28;20065;-89
2022/01/28 12:15:11;;;;;;;0.47;0.47;;;;;;;12.77;11.21;93486.69;4978007;28;20030;-90
2022/01/28 12:18:18;;;;;;;0.80;0.75;;;;;;;13.02;10.74;93475.97;4993103;28;20038;-89
2022/01/28 12:20:59;;;;;;;;;;;;;;;;;;;;;
2022/01/28 12:23:34;;;;;;;1.75;0.80;;;;;;;12.63;11.26;93447.13;4979955;28;20049;-88
2022/01/28 12:26:09;;;;;;;2.20;1.15;;;;;;;12.71;11.36;93449.16;4979635;28;20789;-89
2022/01/28 12:28:44;;;;;;;1.45;0.80;;;;;;;13.26;10.81;93485.72;4974565;28;20560;-88
2022/01/28 12:31:45;;;;;;;0.60;0.55;;;;;;;12.81;11.25;93456.16;4971082;28;20117;-88
2022/01/28 12:34:25;;;;;;;1.15;0.70;;;;;;;13.80;11.45;93432.03;4967029;28;20057;-89
2022/01/28 12:37:22;;;;;;;1.48;0.80;;;;;;;14.09;9.84;93428.50;4998558;28;20037;-89
2022/01/28 12:40:05;;;;;;;1.23;0.60;;;;;;;13.91;11.52;93493.22;4992752;28;20129;-89
2022/01/28 12:43:22;;;;;;;1.05;0.57;;;;;;;13.34;10.61;93414.16;4980436;28;20053;-89
2022/01/28 12:46:26;;;;;;;1.25;0.65;;;;;;;13.14;10.29;93494.00;4991877;28;20046;-90
2022/01/28 12:49:50;;;;;;;;;;;;;;;;;;;;;
2022/01/28 12:53:22;;;;;;;;;;;;;;;;;;;;;
2022/01/28 12:56:30;;;;;;;0.30;0.30;;;;;;;13.69;10.97;93425.31;4995411;28;20046;-90
2022/01/28 12:59:22;;;;;;;0.70;0.60;;;;;;;13.47;10.19;93426.63;4977897;28;20046;-88
2022/01/28 13:02:40;;;;;;;3.22;0.43;;;;;;;13.24;10.42;93390.56;5000660;28;20046;-89
2022/01/28 13:06:21;;;;;;;3.03;0.50;;;;;;;13.36;10.20;93417.28;4972200;28;20149;-90
2022/01/28 13:08:57;;;;;;;0.73;0.57;;;;;;;13.49;10.31;93458.72;4953838;28;20073;-88
2022/01/28 13:12:21;;;;;;;0.43;0.40;;;;;;;13.22;11.71;93387.47;4977438;28;20069;-88
2022/01/28 13:14:50;;;;;;;1.08;0.60;;;;;;;12.61;9.82;93359.94;4999237;28;20045;-87
2022/01/28 13:17:24;;;;;;;0.55;0.50;;;;;;;13.04;11.38;93373.97;4978607;28;20468;-89
2022/01/28 13:20:13;;;;;;;0.40;0.40;;;;;;;13.29;10.90;93374.78;4958410;28;20039;-87
2022/01/28 13:23:12;;;;;;;0.57;0.57;;;;;;;13.39;10.01;93400.94;4991513;28;20073;-89
2022/01/28 13:26:57;;;;;;;0.68;0.57;;;;;;;12.63;10.17;93384.06;4993890;28;20043;-89
2022/01/28 13:30:00;;;;;;;0.50;0.50;;;;;;;13.01;10.19;93364.00;4931664;29;20051;-88
2022/01/28 13:32:42;;;;;;;;;;;;;;;;;;;;;
2022/01/28 13:35:57;;;;;;;;;;;;;;;;;;;;;
2022/01/28 13:39:15;;;;;;;0.77;0.50;;;;;;;12.84;9.69;93363.66;4986958;28;20519;-88
2022/01/28 13:41:57;;;;;;;;;;;;;;;;;;;;;
2022/01/28 13:44:44;;;;;;;;;;;;;;;;;;;;;
2022/01/28 13:47:12;;;;;;;0.60;0.50;;;;;;;13.44;9.30;93385.13;5008246;28;20475;-89
2022/01/28 13:50:02;;;;;;;0.47;0.47;;;;;;;13.74;10.21;93389.22;4976785;28;20026;-89
2022/01/28 13:52:48;;;;;;;0.20;0.20;;;;;;;13.48;9.28;93445.81;4990555;28;20114;-89
2022/01/28 13:55:35;;;;;;;0.43;0.43;;;;;;;12.62;9.29;93383.31;4976409;28;20048;-89
2022/01/28 13:58:17;;;;;;;0.45;0.45;;;;;;;13.20;10.16;93376.44;4988554;28;20105;-89
2022/01/28 14:01:10;;;;;;;0.40;0.40;;;;;;;13.87;9.48;93427.22;4986603;28;20672;-88
2022/01/28 14:03:59;;;;;;;0.90;0.50;;;;;;;13.90;9.96;93444.28;4977513;28;20129;-88
2022/01/28 14:06:34;;;;;;;0.40;0.40;;;;;;;13.73;9.76;93424.50;4992738;28;20043;-89
2022/01/28 14:09:07;;;;;;;0.40;0.40;;;;;;;13.96;8.69;93445.78;5010778;28;20101;-88
2022/01/28 14:11:52;;;;;;;0.40;0.40;;;;;;;13.29;9.67;93420.25;4997780;28;20038;-88
2022/01/28 14:14:34;;;;;;;0.40;0.40;;;;;;;13.44;9.33;93402.72;5005015;28;20069;-88
2022/01/28 14:17:07;;;;;;;1.27;0.45;;;;;;;13.10;9.58;93391.25;4992303;28;20064;-88
2022/01/28 14:19:46;;;;;;;0.55;0.55;;;;;;;12.88;9.19;93385.72;4977859;28;20031;-88
2022/01/28 14:22:25;;;;;;;;;;;;;;;;;;;;;
2022/01/28 14:24:52;;;;;;;0.45;0.45;;;;;;;13.33;8.94;93386.31;4993458;28;20073;-88
2022/01/28 14:30:34;;;;;;;0.50;0.40;;;;;;;13.81;9.47;93417.03;5007404;28;20022;-88
2022/01/28 14:33:09;;;;;;;0.60;0.50;;;;;;;13.58;9.27;93387.03;4993062;28;20046;-88
2022/01/28 14:35:42;;;;;;;0.52;0.50;;;;;;;13.68;8.68;93429.03;4992719;28;20047;-89
2022/01/28 14:38:13;;;;;;;0.90;0.50;;;;;;;13.20;9.56;93400.09;4982539;28;20035;-88
2022/01/28 14:40:55;;;;;;;0.40;0.40;;;;;;;13.30;9.26;93371.84;5008151;28;20040;-88
2022/01/28 14:43:23;;;;;;;0.55;0.52;;;;;;;13.84;9.23;93405.94;4993129;28;20031;-88
2022/01/28 14:45:59;;;;;;;0.35;0.35;;;;;;;13.92;8.92;93435.03;4974002;28;20081;-88